Time;durP1;ratioP1;P1;durP2;ratioP2;P2;SDS_P1;SDS_P2;PMS_P1;PMS_P2;Temp;Humidity;BMP_temperature;BMP_pressure;BME280_temperature;BME280_humidity;BME280_pressure;Samples;Min_cycle;Max_cycle;Signal;HPM_P1;HPM_P2
2022/10/10 00:00:10;;;;;;;0.57;0.57;;;;;;;8.63;92.51;99494.91;5032453;28;20053;-91
2022/10/10 00:02:37;;;;;;;0.50;0.50;;;;;;;8.65;92.46;99494.66;5030279;28;20452;-92
2022/10/10 00:05:04;;;;;;;0.57;0.57;;;;;;;8.66;92.60;99496.31;5033331;28;20054;-90
2022/10/10 00:07:32;;;;;;;0.60;0.60;;;;;;;8.66;92.51;99497.16;5030627;28;20053;-92
2022/10/10 00:10:01;;;;;;;0.52;0.52;;;;;;;8.62;92.48;99490.53;5046784;28;20053;-91
2022/10/10 00:12:29;;;;;;;0.50;0.50;;;;;;;8.59;92.61;99493.69;5029706;28;20059;-94
2022/10/10 00:14:56;;;;;;;0.60;0.60;;;;;;;8.59;92.42;99491.00;5035470;28;20428;-92
2022/10/10 00:17:23;;;;;;;0.60;0.60;;;;;;;8.63;92.51;99488.66;5035177;28;20508;-90
2022/10/10 00:19:49;;;;;;;0.60;0.60;;;;;;;8.62;92.25;99495.09;5033941;28;20060;-92
2022/10/10 00:22:16;;;;;;;0.60;0.60;;;;;;;8.61;92.09;99501.53;5034873;28;20103;-90
2022/10/10 00:24:43;;;;;;;0.50;0.50;;;;;;;8.59;92.16;99506.31;5034173;28;20042;-90
2022/10/10 00:27:10;;;;;;;0.60;0.60;;;;;;;8.56;91.79;99509.41;5034643;28;20535;-92
2022/10/10 00:29:37;;;;;;;0.60;0.60;;;;;;;8.56;91.62;99518.34;5020981;28;20074;-94
2022/10/10 00:32:04;;;;;;;0.60;0.60;;;;;;;8.56;91.39;99518.34;5016071;28;20054;-92
2022/10/10 00:34:32;;;;;;;0.50;0.50;;;;;;;8.59;91.07;99525.97;5014459;28;20041;-91
2022/10/10 00:36:59;;;;;;;0.60;0.60;;;;;;;8.58;90.54;99531.56;5030387;28;20053;-92
2022/10/10 00:39:26;;;;;;;0.50;0.50;;;;;;;8.63;90.05;99534.41;4998338;28;20050;-91
2022/10/10 00:41:53;;;;;;;0.60;0.60;;;;;;;8.64;90.07;99534.19;5016349;28;20046;-90
2022/10/10 00:44:20;;;;;;;0.60;0.60;;;;;;;8.64;89.76;99536.91;5014998;28;20085;-90
2022/10/10 00:46:49;;;;;;;0.50;0.50;;;;;;;8.61;89.43;99534.66;5014434;28;20137;-91
2022/10/10 00:49:18;;;;;;;0.50;0.50;;;;;;;8.60;89.72;99524.91;5014418;28;20049;-91
2022/10/10 00:51:48;;;;;;;0.50;0.50;;;;;;;8.58;90.10;99527.03;5014394;28;20157;-91
2022/10/10 00:54:20;;;;;;;0.60;0.60;;;;;;;8.48;90.18;99515.06;5013532;28;20107;-92
2022/10/10 00:56:50;;;;;;;0.50;0.50;;;;;;;8.55;90.33;99530.13;5014412;28;20050;-92
2022/10/10 00:59:17;;;;;;;0.52;0.52;;;;;;;8.52;90.31;99530.56;5030526;28;20501;-89
2022/10/10 01:01:45;;;;;;;0.60;0.60;;;;;;;8.48;90.25;99531.22;5012999;28;20049;-90
2022/10/10 01:04:40;;;;;;;0.50;0.50;;;;;;;8.45;90.78;99535.16;5015313;28;20054;-90
2022/10/10 01:07:17;;;;;;;0.50;0.50;;;;;;;8.42;91.10;99531.03;5014593;28;20416;-91
2022/10/10 01:09:46;;;;;;;0.60;0.60;;;;;;;8.43;91.04;99534.56;5014226;28;20057;-90
2022/10/10 01:12:16;;;;;;;0.60;0.60;;;;;;;8.47;90.95;99538.47;5012760;28;20085;-89
2022/10/10 01:15:40;;;;;;;0.60;0.60;;;;;;;8.51;90.60;99547.75;5014472;28;20046;-91
2022/10/10 01:18:24;;;;;;;0.60;0.60;;;;;;;8.52;90.64;99545.88;4993019;28;20054;-91
2022/10/10 01:21:17;;;;;;;0.60;0.60;;;;;;;8.55;90.21;99542.75;4992242;28;20693;-91
2022/10/10 01:24:21;;;;;;;0.50;0.50;;;;;;;8.59;90.36;99552.06;4975418;28;20086;-90
2022/10/10 01:26:51;;;;;;;0.50;0.50;;;;;;;8.55;90.34;99546.25;4991715;28;20050;-90
2022/10/10 01:29:53;;;;;;;0.52;0.52;;;;;;;8.55;90.43;99554.34;4992016;28;20156;-90
2022/10/10 01:32:33;;;;;;;0.50;0.50;;;;;;;8.51;90.66;99555.84;4986800;28;20054;-90
2022/10/10 01:35:07;;;;;;;0.60;0.60;;;;;;;8.44;90.73;99563.13;4976015;28;20054;-91
2022/10/10 01:37:40;;;;;;;0.50;0.50;;;;;;;8.36;90.78;99576.78;4991672;28;20509;-92
2022/10/10 01:40:23;;;;;;;0.50;0.50;;;;;;;8.31;90.78;99577.44;4976037;28;20112;-92
2022/10/10 01:42:53;;;;;;;0.60;0.60;;;;;;;8.27;90.93;99570.84;4991469;28;20135;-91
2022/10/10 01:45:22;;;;;;;0.60;0.60;;;;;;;8.25;90.58;99584.50;4991395;28;20061;-90
2022/10/10 01:47:50;;;;;;;0.60;0.60;;;;;;;8.23;90.70;99586.59;4992091;28;20049;-90
2022/10/10 01:50:19;;;;;;;0.60;0.60;;;;;;;8.24;90.67;99592.78;5012711;28;20042;-90
2022/10/10 01:53:07;;;;;;;0.60;0.60;;;;;;;8.27;90.07;99599.59;5014494;28;20069;-90
2022/10/10 01:55:44;;;;;;;0.60;0.60;;;;;;;8.29;89.69;99592.97;5013928;28;20124;-90
2022/10/10 01:58:17;;;;;;;0.60;0.60;;;;;;;8.32;89.76;99595.22;5011886;28;20056;-89
2022/10/10 02:00:57;;;;;;;0.60;0.60;;;;;;;8.31;89.89;99604.34;5013093;28;20045;-90
2022/10/10 02:03:36;;;;;;;0.60;0.60;;;;;;;8.28;89.33;99599.38;5013408;28;20060;-92
2022/10/10 02:06:14;;;;;;;0.60;0.60;;;;;;;8.28;88.87;99603.91;5011948;28;20061;-90
2022/10/10 02:08:50;;;;;;;0.60;0.60;;;;;;;8.30;88.94;99617.97;5011756;28;20169;-90
2022/10/10 02:11:18;;;;;;;0.50;0.50;;;;;;;8.32;88.79;99626.66;5012762;28;20058;-91
2022/10/10 02:13:51;;;;;;;0.60;0.60;;;;;;;8.36;88.29;99626.03;5015144;28;20477;-91
2022/10/10 02:16:23;;;;;;;0.50;0.50;;;;;;;8.38;87.79;99632.03;5013359;28;20045;-89
2022/10/10 02:18:54;;;;;;;0.60;0.60;;;;;;;8.40;87.24;99639.88;4995496;28;20543;-90
2022/10/10 02:21:23;;;;;;;0.50;0.50;;;;;;;8.42;87.17;99645.88;5012214;28;20456;-90
2022/10/10 02:23:52;;;;;;;0.60;0.60;;;;;;;8.48;87.22;99636.13;5012402;28;20065;-90
2022/10/10 02:26:21;;;;;;;0.50;0.50;;;;;;;8.49;86.91;99633.22;5012874;28;20363;-91
2022/10/10 02:28:54;;;;;;;0.60;0.60;;;;;;;8.43;86.00;99623.31;5012366;28;20049;-91
2022/10/10 02:31:33;;;;;;;0.57;0.57;;;;;;;8.49;85.88;99640.47;5012176;28;20050;-91
2022/10/10 02:34:11;;;;;;;0.50;0.50;;;;;;;8.45;86.02;99640.88;5011748;28;20461;-91
2022/10/10 02:36:47;;;;;;;0.60;0.60;;;;;;;8.46;86.17;99644.44;5010637;28;20152;-92
2022/10/10 02:39:16;;;;;;;0.60;0.60;;;;;;;8.46;86.08;99641.75;5012784;28;20053;-89
2022/10/10 02:41:45;;;;;;;0.60;0.60;;;;;;;8.47;86.10;99651.44;5013048;28;20045;-90
2022/10/10 02:44:15;;;;;;;0.60;0.60;;;;;;;8.47;86.07;99648.75;5012777;28;20057;-91
2022/10/10 02:46:42;;;;;;;0.60;0.60;;;;;;;8.45;86.26;99656.22;5011245;28;20049;-92
2022/10/10 02:49:10;;;;;;;0.60;0.60;;;;;;;8.45;86.68;99656.22;5013136;28;20046;-90
2022/10/10 02:51:38;;;;;;;0.60;0.60;;;;;;;8.44;86.51;99660.78;5013097;28;20057;-91
2022/10/10 02:54:06;;;;;;;0.60;0.60;;;;;;;8.44;86.36;99655.38;5014715;28;20065;-90
2022/10/10 02:56:33;;;;;;;0.60;0.60;;;;;;;8.43;86.32;99663.66;5011213;28;20496;-91
2022/10/10 02:58:59;;;;;;;0.57;0.57;;;;;;;8.41;86.55;99663.06;5012601;28;20061;-90
2022/10/10 03:01:26;;;;;;;0.60;0.60;;;;;;;8.35;86.27;99663.88;5021738;28;20025;-92
2022/10/10 03:03:53;;;;;;;0.52;0.52;;;;;;;8.27;85.90;99654.19;5019651;28;20113;-92
2022/10/10 03:06:20;;;;;;;0.60;0.60;;;;;;;8.24;85.65;99665.38;5015600;28;20149;-92
2022/10/10 03:08:47;;;;;;;0.50;0.50;;;;;;;8.21;85.03;99666.63;5024620;28;20053;-92
2022/10/10 03:11:15;;;;;;;0.50;0.50;;;;;;;8.24;84.20;99658.13;5023243;28;20042;-91
2022/10/10 03:13:42;;;;;;;0.60;0.60;;;;;;;8.20;83.76;99656.06;5026619;28;20060;-87
2022/10/10 03:16:09;;;;;;;0.57;0.57;;;;;;;8.22;82.98;99670.16;5016975;28;20046;-92
2022/10/10 03:18:37;;;;;;;0.60;0.60;;;;;;;8.19;82.41;99666.00;5012429;28;20050;-95
2022/10/10 03:21:04;;;;;;;0.60;0.60;;;;;;;8.19;82.28;99666.00;5026208;28;20045;-92
2022/10/10 03:23:34;;;;;;;0.60;0.60;;;;;;;8.18;81.94;99683.19;5032460;28;20147;-93
2022/10/10 03:26:02;;;;;;;0.60;0.60;;;;;;;8.19;81.91;99686.72;5033673;28;20541;-92
2022/10/10 03:28:29;;;;;;;0.60;0.60;;;;;;;8.20;82.03;99688.34;5033124;28;20045;-93
2022/10/10 03:30:56;;;;;;;0.60;0.60;;;;;;;8.19;81.89;99690.22;5030809;28;20114;-89
2022/10/10 03:33:23;;;;;;;0.60;0.60;;;;;;;8.15;81.91;99689.00;5030065;28;20046;-88
2022/10/10 03:35:50;;;;;;;0.60;0.60;;;;;;;8.16;82.04;99693.34;5031198;28;20520;-88
2022/10/10 03:38:17;;;;;;;0.60;0.60;;;;;;;8.16;82.06;99700.59;5024864;28;20107;-91
2022/10/10 03:40:45;;;;;;;0.50;0.50;;;;;;;8.15;82.07;99699.75;5026340;28;20145;-91
2022/10/10 03:43:13;;;;;;;0.60;0.60;;;;;;;8.12;82.13;99699.34;5012423;28;20049;-88
2022/10/10 03:45:42;;;;;;;0.60;0.60;;;;;;;8.09;81.65;99705.97;5012610;28;20046;-89
2022/10/10 03:48:10;;;;;;;0.60;0.60;;;;;;;8.11;81.90;99706.59;5015117;28;20054;-92
2022/10/10 03:50:37;;;;;;;0.60;0.60;;;;;;;8.13;81.82;99715.28;5029451;28;20045;-91
2022/10/10 03:53:09;;;;;;;0.60;0.60;;;;;;;8.14;81.78;99722.28;5035970;28;20057;-91
2022/10/10 03:55:54;;;;;;;0.60;0.60;;;;;;;8.02;81.99;99703.28;5010159;28;20058;-90
2022/10/10 03:58:21;;;;;;;0.60;0.60;;;;;;;8.10;81.85;99718.38;5011461;28;20134;-91
2022/10/10 04:00:57;;;;;;;0.60;0.60;;;;;;;8.18;82.10;99730.78;4996860;28;20060;-92
2022/10/10 04:03:25;;;;;;;0.60;0.60;;;;;;;8.19;82.31;99732.41;5009711;28;20061;-91
2022/10/10 04:05:53;;;;;;;0.47;0.47;;;;;;;8.19;82.32;99738.63;5027361;28;20060;-92
2022/10/10 04:08:21;;;;;;;0.60;0.60;;;;;;;8.24;82.49;99743.38;5007606;28;21161;-93
2022/10/10 04:10:52;;;;;;;0.60;0.60;;;;;;;8.24;82.30;99746.06;5006870;28;20108;-89
2022/10/10 04:13:20;;;;;;;0.55;0.55;;;;;;;8.18;82.42;99741.53;5021647;28;20049;-94
2022/10/10 04:15:54;;;;;;;0.50;0.50;;;;;;;8.19;82.48;99740.47;4986244;28;20042;-89
2022/10/10 04:18:23;;;;;;;0.70;0.70;;;;;;;8.17;82.14;99738.00;5006458;28;20136;-87
2022/10/10 04:20:53;;;;;;;0.60;0.60;;;;;;;8.21;82.14;99752.69;5006270;28;20193;-91
2022/10/10 04:23:21;;;;;;;0.60;0.60;;;;;;;8.17;81.87;99743.38;4993955;28;20065;-93
2022/10/10 04:25:54;;;;;;;0.60;0.60;;;;;;;8.15;81.58;99747.31;4986466;28;20414;-94
2022/10/10 04:28:21;;;;;;;0.60;0.60;;;;;;;8.14;81.33;99748.34;5003801;28;20222;-92
2022/10/10 04:30:48;;;;;;;0.60;0.60;;;;;;;8.19;81.28;99754.75;4990038;28;20109;-94
2022/10/10 04:33:16;;;;;;;0.60;0.60;;;;;;;8.19;81.10;99765.50;4977879;28;20052;-94
2022/10/10 04:35:47;;;;;;;0.60;0.60;;;;;;;8.20;80.96;99766.31;5010579;28;20056;-93
2022/10/10 04:38:14;;;;;;;0.60;0.60;;;;;;;8.14;81.09;99764.50;5009389;28;20596;-94
2022/10/10 04:40:41;;;;;;;0.60;0.60;;;;;;;8.06;80.99;99770.91;5020702;28;20084;-94
2022/10/10 04:43:08;;;;;;;0.60;0.60;;;;;;;8.01;80.88;99776.91;5018072;28;20057;-91
2022/10/10 04:45:35;;;;;;;0.60;0.60;;;;;;;7.97;80.53;99788.28;5015424;28;20041;-94
2022/10/10 04:48:04;;;;;;;0.60;0.60;;;;;;;7.90;79.90;99792.84;5043925;28;20069;-92
2022/10/10 04:50:31;;;;;;;0.60;0.60;;;;;;;7.81;79.74;99786.84;5044038;28;20054;-92
2022/10/10 04:52:58;;;;;;;0.60;0.60;;;;;;;7.76;79.65;99789.34;5042267;28;20408;-90
2022/10/10 04:55:30;;;;;;;0.60;0.60;;;;;;;7.67;79.55;99796.78;5021830;28;20057;-88
2022/10/10 04:57:58;;;;;;;0.60;0.60;;;;;;;7.59;79.55;99805.03;4990010;28;20042;-93
2022/10/10 05:00:25;;;;;;;0.60;0.60;;;;;;;7.56;79.86;99805.44;5041089;28;20049;-93
2022/10/10 05:02:54;;;;;;;0.60;0.60;;;;;;;7.51;79.92;99800.69;5026037;28;20076;-94
2022/10/10 05:05:23;;;;;;;0.60;0.60;;;;;;;7.55;80.03;99810.00;5028218;28;20077;-94
2022/10/10 05:07:50;;;;;;;0.60;0.60;;;;;;;7.72;79.78;99818.50;5045546;28;20059;-94
2022/10/10 05:10:22;;;;;;;0.60;0.60;;;;;;;7.91;79.58;99821.38;5050352;28;20076;-93
2022/10/10 05:12:49;;;;;;;0.60;0.60;;;;;;;8.04;79.20;99821.38;5048560;28;20065;-94
2022/10/10 05:15:42;;;;;;;0.68;0.68;;;;;;;8.21;78.92;99830.66;5053121;28;20062;-93
2022/10/10 05:18:09;;;;;;;0.60;0.60;;;;;;;8.37;78.58;99826.69;5050974;28;20053;-91
2022/10/10 05:20:36;;;;;;;0.60;0.60;;;;;;;8.46;78.58;99828.16;5034043;28;20408;-93
2022/10/10 05:23:03;;;;;;;0.60;0.60;;;;;;;8.48;78.64;99825.25;5052824;28;20068;-94
2022/10/10 05:25:30;;;;;;;0.70;0.70;;;;;;;8.63;78.43;99827.69;5052727;28;20072;-94
2022/10/10 05:27:57;;;;;;;0.60;0.60;;;;;;;8.70;78.10;99835.75;5049646;28;20053;-93
2022/10/10 05:30:29;;;;;;;0.60;0.60;;;;;;;8.73;78.15;99828.06;5049264;28;20053;-94
2022/10/10 05:32:56;;;;;;;0.70;0.70;;;;;;;8.83;78.06;99836.53;5036370;28;20046;-94
2022/10/10 05:35:34;;;;;;;0.70;0.70;;;;;;;9.09;77.39;99834.78;5036906;28;20077;-92
2022/10/10 05:38:15;;;;;;;0.60;0.60;;;;;;;9.32;76.68;99829.69;5035373;28;20144;-95
2022/10/10 05:40:42;;;;;;;0.70;0.70;;;;;;;9.36;76.33;99830.06;5068554;28;20045;-93
2022/10/10 05:43:09;;;;;;;0.70;0.70;;;;;;;9.27;76.49;99836.78;5052865;28;20079;-93
2022/10/10 05:45:36;;;;;;;0.60;0.60;;;;;;;9.07;76.98;99837.69;5072288;28;20072;-94
2022/10/10 05:48:03;;;;;;;0.60;0.60;;;;;;;8.97;77.17;99834.63;5057998;28;20056;-93
2022/10/10 05:50:46;;;;;;;0.63;0.63;;;;;;;9.09;77.08;99842.88;5057010;28;20045;-94
2022/10/10 05:53:13;;;;;;;0.70;0.70;;;;;;;9.07;77.00;99847.63;5039933;28;20049;-92
2022/10/10 05:56:06;;;;;;;0.60;0.60;;;;;;;8.91;77.07;99848.91;5054877;28;20056;-93
2022/10/10 05:58:33;;;;;;;0.60;0.60;;;;;;;8.65;77.43;99853.34;5052672;28;20463;-93
2022/10/10 06:01:06;;;;;;;0.60;0.60;;;;;;;8.52;77.51;99853.41;5048758;28;20080;-91
2022/10/10 06:03:34;;;;;;;0.60;0.60;;;;;;;8.36;78.11;99859.19;5042702;28;20132;-93
2022/10/10 06:06:02;;;;;;;0.60;0.60;;;;;;;8.37;78.83;99863.53;5059445;28;20057;-93
2022/10/10 06:08:30;;;;;;;0.50;0.50;;;;;;;8.36;78.84;99859.19;5042922;28;20067;-93
2022/10/10 06:11:02;;;;;;;0.52;0.52;;;;;;;8.41;78.30;99870.19;5042779;28;20106;-93
2022/10/10 06:13:29;;;;;;;0.60;0.60;;;;;;;8.45;78.33;99882.16;5044832;28;20413;-93
2022/10/10 06:15:57;;;;;;;0.60;0.60;;;;;;;8.52;77.85;99879.47;5045556;28;20064;-92
2022/10/10 06:18:25;;;;;;;0.70;0.70;;;;;;;8.66;77.07;99881.13;5046289;28;20061;-93
2022/10/10 06:20:52;;;;;;;0.70;0.70;;;;;;;8.71;76.14;99885.84;5044788;28;20064;-95
2022/10/10 06:23:19;;;;;;;0.70;0.70;;;;;;;8.84;75.91;99888.53;5043023;28;20499;-93
2022/10/10 06:26:01;;;;;;;0.70;0.70;;;;;;;8.96;74.83;99886.81;5028448;28;20061;-94
2022/10/10 06:28:28;;;;;;;0.70;0.70;;;;;;;9.10;74.62;99892.97;5040688;28;20080;-94
2022/10/10 06:31:00;;;;;;;0.60;0.60;;;;;;;9.18;74.26;99889.22;5046925;28;20059;-93
2022/10/10 06:33:27;;;;;;;0.63;0.63;;;;;;;9.26;74.41;99888.97;5056673;28;20077;-93
2022/10/10 06:35:57;;;;;;;0.60;0.60;;;;;;;9.30;73.83;99898.28;5042190;28;20068;-94
2022/10/10 06:38:26;;;;;;;0.60;0.60;;;;;;;9.27;73.31;99893.34;5040713;28;20061;-94
2022/10/10 06:40:53;;;;;;;0.60;0.60;;;;;;;9.31;73.52;99894.53;5022019;28;20144;-94
2022/10/10 06:43:27;;;;;;;0.70;0.70;;;;;;;9.22;72.57;99898.53;5043259;28;20052;-92
2022/10/10 06:45:54;;;;;;;0.70;0.70;;;;;;;9.18;72.93;99900.00;5058083;28;20045;-93
2022/10/10 06:48:21;;;;;;;0.70;0.70;;;;;;;9.32;72.81;99896.22;5041219;28;20601;-94
2022/10/10 06:51:00;;;;;;;0.70;0.70;;;;;;;9.33;71.47;99903.25;5043987;28;20117;-94
2022/10/10 06:53:27;;;;;;;0.70;0.70;;;;;;;9.32;72.15;99898.91;5044584;28;20053;-94
2022/10/10 06:55:54;;;;;;;0.63;0.63;;;;;;;9.55;71.72;99906.47;5048509;28;20496;-93
2022/10/10 06:58:23;;;;;;;0.70;0.70;;;;;;;9.62;71.06;99893.78;5039067;28;20120;-90
2022/10/10 07:00:55;;;;;;;0.68;0.68;;;;;;;9.76;70.93;99900.72;5042911;28;20045;-91
2022/10/10 07:03:22;;;;;;;0.70;0.70;;;;;;;9.93;70.01;99902.91;5041809;28;20068;-93
2022/10/10 07:05:54;;;;;;;0.80;0.80;;;;;;;9.78;69.71;99900.50;5040056;28;20061;-90
2022/10/10 07:08:22;;;;;;;0.70;0.70;;;;;;;9.99;69.51;99908.22;5042673;28;20054;-92
2022/10/10 07:10:50;;;;;;;0.75;0.75;;;;;;;10.00;68.52;99909.03;5037937;28;20815;-92
2022/10/10 07:13:17;;;;;;;0.70;0.70;;;;;;;9.98;68.70;99905.78;5058152;28;20045;-95
2022/10/10 07:15:53;;;;;;;0.70;0.70;;;;;;;9.94;68.59;99907.25;5042074;28;20268;-92
2022/10/10 07:18:22;;;;;;;0.70;0.70;;;;;;;10.12;69.06;99911.88;5020915;28;20041;-93
2022/10/10 07:21:03;;;;;;;0.70;0.70;;;;;;;10.40;67.65;99917.69;5020483;28;20041;-93
2022/10/10 07:23:32;;;;;;;0.70;0.70;;;;;;;10.35;66.26;99917.53;5043775;28;20045;-94
2022/10/10 07:26:01;;;;;;;0.63;0.63;;;;;;;10.32;65.68;99907.16;5039484;28;20046;-94
2022/10/10 07:28:28;;;;;;;0.80;0.80;;;;;;;10.32;66.16;99907.16;5038460;28;20076;-93
2022/10/10 07:31:03;;;;;;;0.70;0.70;;;;;;;10.63;64.76;99908.13;5024297;28;20542;-91
2022/10/10 07:33:41;;;;;;;0.70;0.70;;;;;;;10.83;64.79;99903.34;5023384;28;20069;-92
2022/10/10 07:36:42;;;;;;;0.70;0.70;;;;;;;11.23;63.88;99911.00;5034287;28;20026;-93
2022/10/10 07:39:09;;;;;;;0.70;0.70;;;;;;;11.49;62.68;99914.41;5043119;28;20065;-95
2022/10/10 07:41:42;;;;;;;0.70;0.70;;;;;;;11.84;61.52;99916.44;5027796;28;20049;-94
2022/10/10 07:44:12;;;;;;;0.70;0.70;;;;;;;12.17;60.08;99910.53;5038677;28;20056;-94
2022/10/10 07:46:39;;;;;;;0.70;0.70;;;;;;;12.22;58.02;99910.66;5040446;28;20109;-93
2022/10/10 07:49:07;;;;;;;0.70;0.70;;;;;;;12.13;59.04;99912.09;5035391;28;20076;-93
2022/10/10 07:51:35;;;;;;;0.70;0.70;;;;;;;12.22;59.07;99915.28;5052115;28;20045;-93
2022/10/10 07:54:05;;;;;;;0.80;0.80;;;;;;;12.80;59.39;99915.28;5042548;28;20052;-93
2022/10/10 07:56:32;;;;;;;0.80;0.80;;;;;;;12.97;56.76;99909.97;5032562;28;20056;-91
2022/10/10 07:58:59;;;;;;;0.70;0.70;;;;;;;12.90;56.44;99914.69;5034247;28;20053;-93
2022/10/10 08:01:27;;;;;;;0.70;0.70;;;;;;;12.89;55.96;99918.47;5039996;28;20046;-94
2022/10/10 08:04:10;;;;;;;0.80;0.80;;;;;;;12.83;55.71;99915.88;5038274;28;20084;-93
2022/10/10 08:06:37;;;;;;;0.73;0.73;;;;;;;13.21;56.02;99915.34;5040873;28;20053;-94
2022/10/10 08:09:05;;;;;;;0.70;0.70;;;;;;;13.70;54.72;99915.81;5038599;28;20054;-94
2022/10/10 08:11:33;;;;;;;0.80;0.80;;;;;;;13.88;53.45;99918.31;5017764;28;20053;-91
2022/10/10 08:14:05;;;;;;;0.80;0.80;;;;;;;14.04;53.83;99926.72;5032273;28;20125;-95
2022/10/10 08:16:33;;;;;;;0.70;0.70;;;;;;;14.39;51.71;99920.25;5041978;28;20085;-91
2022/10/10 08:19:02;;;;;;;0.70;0.70;;;;;;;13.95;52.88;99915.44;5025520;28;20049;-94
2022/10/10 08:21:31;;;;;;;0.70;0.70;;;;;;;14.24;52.46;99920.81;5028544;28;20059;-92
2022/10/10 08:24:02;;;;;;;0.70;0.70;;;;;;;14.45;50.42;99913.81;5031748;28;20051;-93
2022/10/10 08:26:30;;;;;;;0.70;0.70;;;;;;;14.39;50.05;99914.81;5045431;28;20046;-92
2022/10/10 08:28:58;;;;;;;0.70;0.70;;;;;;;15.02;49.72;99918.22;5022267;28;20064;-91
2022/10/10 08:31:29;;;;;;;0.77;0.77;;;;;;;15.58;48.65;99911.53;5045784;28;20061;-90
2022/10/10 08:33:56;;;;;;;0.70;0.70;;;;;;;15.95;47.51;99918.19;5028828;28;20049;-92
2022/10/10 08:36:49;;;;;;;0.70;0.70;;;;;;;15.81;46.12;99928.69;5030984;28;20146;-91
2022/10/10 08:39:16;;;;;;;0.75;0.75;;;;;;;15.39;45.88;99921.94;5031502;28;20041;-89
2022/10/10 08:41:56;;;;;;;0.70;0.70;;;;;;;15.30;46.41;99923.47;5049104;28;20053;-92
2022/10/10 08:44:37;;;;;;;0.70;0.70;;;;;;;15.91;46.06;99917.06;5038382;28;20137;-93
2022/10/10 08:47:18;;;;;;;0.70;0.70;;;;;;;16.29;43.71;99923.41;5052714;28;20046;-93
2022/10/10 08:49:56;;;;;;;0.70;0.70;;;;;;;15.67;43.84;99924.69;5032324;28;20143;-91
2022/10/10 08:52:41;;;;;;;0.70;0.70;;;;;;;15.84;44.22;99932.78;5034319;28;20050;-95
2022/10/10 08:55:18;;;;;;;0.70;0.70;;;;;;;16.45;43.85;99925.16;5054697;28;20029;-95
2022/10/10 08:58:39;;;;;;;0.70;0.70;;;;;;;17.10;43.35;99923.97;5029744;28;20059;-94
2022/10/10 09:01:26;;;;;;;0.80;0.80;;;;;;;17.83;41.62;99925.91;4971203;28;20153;-94
2022/10/10 09:04:16;;;;;;;0.70;0.70;;;;;;;18.16;40.31;99927.31;4957192;28;20046;-95
2022/10/10 09:06:59;;;;;;;0.70;0.70;;;;;;;17.61;41.14;99930.72;4979541;28;20066;-93
2022/10/10 09:09:26;;;;;;;0.70;0.70;;;;;;;17.19;41.22;99927.03;4981791;28;20067;-94
2022/10/10 09:12:22;;;;;;;0.60;0.60;;;;;;;16.85;42.60;99932.00;4959665;28;20054;-93
2022/10/10 09:14:55;;;;;;;0.70;0.70;;;;;;;16.96;41.15;99932.88;4981854;28;20054;-89
2022/10/10 09:17:45;;;;;;;0.70;0.70;;;;;;;17.31;40.70;99924.06;4965822;29;20059;-91
2022/10/10 09:20:26;;;;;;;0.70;0.70;;;;;;;17.28;40.85;99928.16;4970511;28;20114;-91
2022/10/10 09:22:59;;;;;;;0.70;0.70;;;;;;;18.09;40.09;99934.13;4985028;28;20077;-93
2022/10/10 09:25:59;;;;;;;0.70;0.70;;;;;;;18.25;38.70;99935.78;5006767;28;20061;-95
2022/10/10 09:28:41;;;;;;;0.80;0.80;;;;;;;18.28;38.50;99929.78;5000349;28;20041;-92
2022/10/10 09:31:24;;;;;;;0.77;0.77;;;;;;;18.66;38.09;99937.66;4988281;28;20051;-95
2022/10/10 09:34:05;;;;;;;0.80;0.80;;;;;;;18.06;37.46;99935.50;4983321;28;20042;-93
2022/10/10 09:36:34;;;;;;;0.80;0.80;;;;;;;18.54;37.69;99944.25;5008180;28;20156;-93
2022/10/10 09:39:12;;;;;;;0.70;0.70;;;;;;;19.40;36.43;99947.91;5042637;28;20058;-93
2022/10/10 09:41:53;;;;;;;0.70;0.70;;;;;;;20.00;35.81;99945.13;5026984;28;20061;-89
2022/10/10 09:44:21;;;;;;;0.70;0.70;;;;;;;20.42;34.25;99940.19;5039837;28;20050;-92
2022/10/10 09:46:48;;;;;;;0.68;0.68;;;;;;;20.51;33.48;99939.28;5037963;28;20046;-93
2022/10/10 09:49:16;;;;;;;0.70;0.70;;;;;;;20.33;33.45;99946.28;5020290;28;20049;-93
2022/10/10 09:51:44;;;;;;;0.70;0.70;;;;;;;20.52;31.77;99938.16;5037565;28;20049;-93
2022/10/10 09:54:18;;;;;;;0.70;0.70;;;;;;;19.63;31.92;99942.88;5003337;28;20108;-92
2022/10/10 09:56:55;;;;;;;0.70;0.70;;;;;;;19.51;32.38;99945.94;5015634;28;20054;-93
2022/10/10 09:59:54;;;;;;;0.70;0.70;;;;;;;20.01;31.98;99937.75;5035449;28;20083;-93
2022/10/10 10:02:27;;;;;;;0.70;0.70;;;;;;;20.25;32.08;99940.59;4982581;28;20085;-92
2022/10/10 10:04:54;;;;;;;0.70;0.70;;;;;;;20.45;32.11;99934.13;4981968;28;20082;-91
2022/10/10 10:07:24;;;;;;;0.70;0.70;;;;;;;20.96;30.72;99945.47;4968116;28;20055;-95
2022/10/10 10:10:00;;;;;;;0.70;0.70;;;;;;;21.10;29.58;99928.31;4980932;28;20450;-93
2022/10/10 10:12:39;;;;;;;0.70;0.70;;;;;;;20.62;30.40;99941.97;4980228;28;20051;-91
2022/10/10 10:15:19;;;;;;;0.70;0.70;;;;;;;21.02;30.30;99948.97;4972822;28;20050;-94
2022/10/10 10:17:51;;;;;;;0.65;0.65;;;;;;;20.85;28.58;99932.16;4981068;28;20086;-94
2022/10/10 10:20:32;;;;;;;0.70;0.70;;;;;;;20.52;28.77;99934.63;4981205;28;20085;-95
2022/10/10 10:23:00;;;;;;;0.70;0.70;;;;;;;19.48;29.10;99933.63;4972502;28;20782;-94
2022/10/10 10:25:36;;;;;;;0.80;0.80;;;;;;;19.98;30.25;99933.66;4984289;28;20064;-92
2022/10/10 10:28:26;;;;;;;0.70;0.70;;;;;;;21.02;28.92;99942.69;4969482;28;20050;-91
2022/10/10 10:31:34;;;;;;;0.60;0.60;;;;;;;21.82;27.55;99933.72;4979938;28;20051;-93
2022/10/10 10:34:46;;;;;;;0.70;0.70;;;;;;;22.29;27.62;99927.25;4985403;28;20043;-95
2022/10/10 10:37:20;;;;;;;0.70;0.70;;;;;;;22.53;26.83;99931.00;4992843;28;20049;-90
2022/10/10 10:39:50;;;;;;;0.70;0.70;;;;;;;22.36;26.38;99932.38;5025534;28;20057;-94
2022/10/10 10:42:32;;;;;;;0.70;0.70;;;;;;;22.56;26.20;99928.47;5040203;28;20049;-93
2022/10/10 10:45:25;;;;;;;0.70;0.70;;;;;;;21.02;27.04;99923.47;5048859;28;20037;-92
2022/10/10 10:48:14;;;;;;;0.70;0.70;;;;;;;20.52;28.63;99929.13;4997142;28;20037;-93
2022/10/10 10:50:55;;;;;;;0.70;0.70;;;;;;;21.35;27.97;99933.50;5048848;28;20037;-94
2022/10/10 10:53:49;;;;;;;0.68;0.68;;;;;;;22.23;27.15;99933.13;5047600;28;20045;-92
2022/10/10 10:56:37;;;;;;;0.70;0.70;;;;;;;22.30;26.51;99928.06;5043426;28;20389;-91
2022/10/10 10:59:35;;;;;;;0.70;0.70;;;;;;;21.84;27.13;99937.00;5042350;28;20052;-92
2022/10/10 11:02:36;;;;;;;0.70;0.70;;;;;;;21.93;26.53;99937.16;5035048;28;20053;-90
2022/10/10 11:05:51;;;;;;;0.70;0.70;;;;;;;22.04;26.82;99931.19;5030675;28;20576;-91
2022/10/10 11:08:29;;;;;;;0.70;0.70;;;;;;;22.52;25.62;99929.38;5019915;28;20049;-91
2022/10/10 11:11:20;;;;;;;0.70;0.70;;;;;;;21.79;26.63;99926.06;5035737;28;20045;-89
2022/10/10 11:14:33;;;;;;;0.70;0.70;;;;;;;21.22;27.26;99925.97;5028646;28;20061;-90
2022/10/10 11:17:09;;;;;;;0.70;0.70;;;;;;;21.04;27.28;99924.81;5037628;28;20507;-91
2022/10/10 11:19:42;;;;;;;0.70;0.70;;;;;;;21.63;26.21;99914.50;5034741;28;20049;-90
2022/10/10 11:22:13;;;;;;;0.70;0.70;;;;;;;21.98;25.75;99921.41;5050893;28;20096;-91
2022/10/10 11:24:44;;;;;;;0.60;0.60;;;;;;;22.47;25.44;99911.03;5033427;28;20108;-91
2022/10/10 11:27:21;;;;;;;0.70;0.70;;;;;;;22.32;25.22;99920.34;5039109;28;20115;-89
2022/10/10 11:30:06;;;;;;;0.60;0.60;;;;;;;22.30;25.25;99925.31;5053545;28;20053;-91
2022/10/10 11:32:55;;;;;;;0.68;0.68;;;;;;;22.75;25.41;99922.09;5037394;28;20060;-92
2022/10/10 11:35:27;;;;;;;0.60;0.60;;;;;;;22.34;24.96;99915.34;5021505;28;20101;-90
2022/10/10 11:38:04;;;;;;;0.60;0.60;;;;;;;22.17;25.44;99917.81;5027549;28;20060;-90
2022/10/10 11:40:36;;;;;;;0.60;0.60;;;;;;;23.04;24.82;99917.16;5035178;28;20077;-90
2022/10/10 11:43:10;;;;;;;0.60;0.60;;;;;;;22.43;25.47;99916.31;5019772;28;20072;-90
2022/10/10 11:45:44;;;;;;;0.70;0.70;;;;;;;22.67;26.15;99920.84;5034791;28;20473;-92
2022/10/10 11:48:12;;;;;;;0.60;0.60;;;;;;;23.24;25.49;99915.91;5036917;28;20049;-91
2022/10/10 11:50:41;;;;;;;0.60;0.60;;;;;;;23.36;24.61;99920.91;5041008;28;20045;-90
2022/10/10 11:53:18;;;;;;;0.60;0.60;;;;;;;23.07;24.52;99924.00;5035700;28;20072;-90
2022/10/10 11:56:03;;;;;;;0.60;0.60;;;;;;;22.81;24.76;99932.66;5036306;28;20136;-88
2022/10/10 11:58:42;;;;;;;0.60;0.60;;;;;;;22.72;25.52;99934.50;5049579;28;20058;-90
2022/10/10 12:01:11;;;;;;;0.60;0.60;;;;;;;23.52;25.47;99933.25;5035093;28;20068;-90
2022/10/10 12:03:38;;;;;;;0.60;0.60;;;;;;;23.64;24.75;99934.66;5030398;28;20080;-93
2022/10/10 12:06:33;;;;;;;0.60;0.60;;;;;;;23.79;24.83;99932.38;5014979;28;20131;-91
2022/10/10 12:09:18;;;;;;;0.60;0.60;;;;;;;23.74;24.83;99931.69;5034384;28;20080;-92